createdAt,value
2023-03-27T00:01:13.047Z,50.66
2023-03-27T00:03:40.878Z,50.58
2023-03-27T00:06:17.442Z,50.57
2023-03-27T00:08:46.670Z,50.68
2023-03-27T00:11:14.901Z,50.45
2023-03-27T00:13:50.560Z,50.53
2023-03-27T00:16:23.934Z,50.59
2023-03-27T00:18:51.605Z,50.45
2023-03-27T00:21:19.417Z,50.66
2023-03-27T00:23:46.912Z,50.61
2023-03-27T00:26:15.338Z,50.46
2023-03-27T00:28:42.672Z,50.56
2023-03-27T00:31:12.978Z,50.52
2023-03-27T00:33:41.006Z,50.59
2023-03-27T00:36:10.215Z,50.52
2023-03-27T00:38:39.634Z,50.53
2023-03-27T00:41:08.378Z,50.72
2023-03-27T00:43:41.152Z,50.60
2023-03-27T00:46:15.873Z,50.63
2023-03-27T00:48:48.040Z,50.57
2023-03-27T00:51:16.320Z,50.42
2023-03-27T00:53:44.611Z,50.66
2023-03-27T00:56:13.385Z,50.45
2023-03-27T00:58:44.822Z,50.38
2023-03-27T01:01:14.702Z,50.54
2023-03-27T01:03:45.531Z,50.45
2023-03-27T01:06:17.126Z,50.54
2023-03-27T01:08:46.897Z,50.44
2023-03-27T01:11:38.222Z,50.55
2023-03-27T01:14:27.137Z,50.34
2023-03-27T01:17:08.051Z,50.36
2023-03-27T01:20:03.940Z,50.41
2023-03-27T01:23:03.149Z,50.36
2023-03-27T01:25:49.433Z,50.26
2023-03-27T01:28:22.433Z,50.18
2023-03-27T01:31:01.804Z,50.31
2023-03-27T01:33:41.406Z,50.28
2023-03-27T01:36:34.906Z,50.33
2023-03-27T01:39:08.386Z,50.49
2023-03-27T01:41:45.917Z,50.38
2023-03-27T01:44:45.826Z,50.52
2023-03-27T01:47:31.854Z,50.42
2023-03-27T01:50:29.922Z,50.48
2023-03-27T01:53:07.168Z,50.33
2023-03-27T01:55:38.944Z,50.17
2023-03-27T01:58:18.142Z,50.31
2023-03-27T02:00:53.210Z,50.22
2023-03-27T02:03:27.740Z,50.27
2023-03-27T02:06:01.591Z,50.23
2023-03-27T02:08:45.088Z,50.13
2023-03-27T02:11:16.535Z,50.15
2023-03-27T02:13:50.304Z,50.12
2023-03-27T02:16:23.578Z,49.87
2023-03-27T02:19:01.780Z,50.12
2023-03-27T02:21:31.437Z,49.95
2023-03-27T02:24:02.493Z,49.99
2023-03-27T02:26:30.599Z,49.95
2023-03-27T02:29:09.379Z,49.93
2023-03-27T02:31:55.055Z,49.76
2023-03-27T02:34:31.750Z,49.80
2023-03-27T02:37:32.695Z,49.91
2023-03-27T02:40:22.983Z,49.84
2023-03-27T02:43:26.118Z,49.91
2023-03-27T02:45:53.423Z,49.62
2023-03-27T02:48:39.553Z,49.78
2023-03-27T02:51:15.342Z,49.72
2023-03-27T02:53:49.311Z,49.75
2023-03-27T02:56:20.427Z,49.63
2023-03-27T02:59:00.003Z,49.64
2023-03-27T03:01:38.013Z,49.76
2023-03-27T03:04:28.706Z,49.70
2023-03-27T03:07:22.841Z,49.82
2023-03-27T03:09:50.469Z,49.57
2023-03-27T03:12:17.862Z,49.63
2023-03-27T03:14:46.622Z,49.77
2023-03-27T03:17:16.030Z,49.75
2023-03-27T03:19:43.405Z,49.64
2023-03-27T03:22:11.328Z,49.56
2023-03-27T03:24:42.344Z,49.56
2023-03-27T03:27:14.386Z,49.30
2023-03-27T03:29:56.843Z,49.31
2023-03-27T03:32:28.173Z,49.38
2023-03-27T03:34:57.090Z,49.32
2023-03-27T03:37:28.714Z,49.43
2023-03-27T03:39:58.199Z,49.38
2023-03-27T03:42:25.435Z,49.24
2023-03-27T03:44:53.345Z,49.13
2023-03-27T03:47:22.634Z,49.23
2023-03-27T03:49:50.772Z,49.21
2023-03-27T03:52:18.213Z,49.09
2023-03-27T03:54:46.715Z,49.29
2023-03-27T03:57:14.445Z,49.08
2023-03-27T03:59:43.394Z,49.17
2023-03-27T04:02:34.875Z,49.13
2023-03-27T04:05:08.812Z,49.15
2023-03-27T04:07:40.132Z,49.16
2023-03-27T04:10:30.837Z,49.30
2023-03-27T04:13:00.554Z,49.39
2023-03-27T04:15:30.787Z,49.54
2023-03-27T04:18:20.206Z,49.61
2023-03-27T04:20:49.798Z,49.36
2023-03-27T04:23:18.953Z,49.40
2023-03-27T04:25:47.392Z,49.44
2023-03-27T04:28:21.461Z,49.75
2023-03-27T04:30:58.432Z,49.65
2023-03-27T04:33:30.903Z,49.77
2023-03-27T04:36:17.365Z,49.63
2023-03-27T04:39:02.379Z,49.43
2023-03-27T04:41:32.701Z,49.63
2023-03-27T04:44:00.345Z,49.47
2023-03-27T04:46:29.414Z,49.73
2023-03-27T04:49:02.295Z,49.78
2023-03-27T04:51:52.699Z,49.60
2023-03-27T04:54:22.873Z,49.73
2023-03-27T04:56:50.781Z,49.75
2023-03-27T04:59:18.024Z,49.59
2023-03-27T05:01:55.459Z,49.59
2023-03-27T05:04:30.563Z,49.53
2023-03-27T05:07:20.078Z,49.64
2023-03-27T05:09:48.006Z,49.45
2023-03-27T05:12:15.627Z,49.55
2023-03-27T05:14:49.910Z,49.61
2023-03-27T05:17:40.826Z,49.37
2023-03-27T05:20:14.911Z,49.55
2023-03-27T05:22:43.971Z,49.48
2023-03-27T05:25:28.805Z,49.37
2023-03-27T05:27:58.185Z,49.41
2023-03-27T05:30:29.540Z,49.53
2023-03-27T05:33:17.636Z,49.47
2023-03-27T05:35:48.455Z,49.39
2023-03-27T05:38:16.125Z,49.25
2023-03-27T05:41:07.294Z,49.16
2023-03-27T05:43:39.445Z,49.43
2023-03-27T05:46:06.928Z,49.41
2023-03-27T05:48:35.164Z,49.26
2023-03-27T05:51:06.001Z,49.09
2023-03-27T05:53:36.289Z,49.29
2023-03-27T05:56:21.420Z,49.27
2023-03-27T05:58:53.883Z,49.17
2023-03-27T06:01:23.740Z,49.24
2023-03-27T06:03:56.019Z,49.37
2023-03-27T06:06:35.837Z,49.10
2023-03-27T06:09:04.015Z,49.20
2023-03-27T06:11:32.176Z,49.01
2023-03-27T06:13:59.689Z,48.99
2023-03-27T06:16:43.264Z,48.89
2023-03-27T06:19:40.112Z,48.87
2023-03-27T06:22:07.501Z,48.89
2023-03-27T06:24:36.111Z,48.75
2023-03-27T06:27:04.632Z,48.82
2023-03-27T06:29:37.287Z,48.94
2023-03-27T06:32:04.671Z,48.93
2023-03-27T06:34:37.714Z,48.86
2023-03-27T06:37:24.965Z,49.02
2023-03-27T06:39:54.884Z,49.13
2023-03-27T06:42:22.189Z,49.31
2023-03-27T06:44:59.556Z,49.35
2023-03-27T06:48:16.904Z,49.42
2023-03-27T06:50:49.349Z,49.46
2023-03-27T06:55:49.963Z,48.77
2023-03-27T06:58:19.247Z,48.95
2023-03-27T07:00:48.698Z,48.61
2023-03-27T07:03:21.483Z,48.55
2023-03-27T07:06:03.947Z,48.52
2023-03-27T07:08:42.640Z,49.16
2023-03-27T07:11:11.997Z,49.48
2023-03-27T07:13:45.072Z,49.77
2023-03-27T07:16:21.428Z,47.84
2023-03-27T07:18:48.753Z,47.40
2023-03-27T07:21:16.479Z,47.46
2023-03-27T07:23:45.634Z,46.77
2023-03-27T07:26:19.018Z,46.08
2023-03-27T07:29:03.934Z,45.97
2023-03-27T07:31:51.610Z,45.98
2023-03-27T07:34:20.905Z,46.32
2023-03-27T07:37:23.979Z,46.55
2023-03-27T07:40:13.470Z,47.82
2023-03-27T07:42:45.501Z,47.77
2023-03-27T07:45:20.754Z,48.12
2023-03-27T07:47:50.081Z,48.03
2023-03-27T07:50:21.450Z,48.11
2023-03-27T07:52:49.683Z,48.63
2023-03-27T07:55:19.732Z,48.13
2023-03-27T07:58:01.771Z,47.48
2023-03-27T08:00:33.945Z,47.64
2023-03-27T08:03:11.526Z,46.84
2023-03-27T08:05:43.698Z,47.06
2023-03-27T08:08:13.801Z,47.26
2023-03-27T08:10:57.079Z,47.35
2023-03-27T08:13:26.624Z,47.72
2023-03-27T08:16:27.740Z,47.78
2023-03-27T08:18:57.806Z,47.65
2023-03-27T08:21:26.803Z,47.87
2023-03-27T08:23:57.703Z,47.74
2023-03-27T08:26:28.169Z,47.96
2023-03-27T08:28:59.236Z,47.32
2023-03-27T08:31:31.192Z,47.10
2023-03-27T08:34:02.555Z,46.93
2023-03-27T08:36:47.591Z,46.35
2023-03-27T08:39:16.566Z,46.27
2023-03-27T08:41:55.730Z,46.12
2023-03-27T08:44:44.381Z,46.21
2023-03-27T08:47:24.915Z,45.91
2023-03-27T08:50:11.753Z,46.69
2023-03-27T08:52:46.770Z,46.95
2023-03-27T08:55:34.459Z,46.47
2023-03-27T08:58:22.501Z,46.39
2023-03-27T09:01:11.676Z,46.20
2023-03-27T09:04:08.478Z,46.28
2023-03-27T09:06:52.409Z,46.08
2023-03-27T09:09:59.246Z,45.95
2023-03-27T09:12:52.556Z,46.03
2023-03-27T09:15:28.428Z,45.81
2023-03-27T09:18:05.254Z,45.58
2023-03-27T09:20:43.600Z,45.71
2023-03-27T09:23:21.995Z,45.85
2023-03-27T09:26:13.708Z,46.22
2023-03-27T09:29:05.292Z,45.45
2023-03-27T09:31:47.176Z,46.54
2023-03-27T09:34:25.298Z,45.96
2023-03-27T09:36:54.487Z,48.40
2023-03-27T09:39:27.504Z,49.07
2023-03-27T09:42:11.257Z,47.49
2023-03-27T09:44:42.567Z,43.93
2023-03-27T09:47:15.422Z,42.93
2023-03-27T09:49:50.695Z,42.50
2023-03-27T09:52:35.563Z,41.75
2023-03-27T09:55:30.172Z,41.30
2023-03-27T09:58:27.826Z,40.65
2023-03-27T10:01:13.947Z,40.90
2023-03-27T10:03:49.097Z,40.38
2023-03-27T10:06:31.779Z,39.91
2023-03-27T10:09:27.698Z,40.92
2023-03-27T10:12:07.365Z,40.26
2023-03-27T10:14:45.860Z,40.12
2023-03-27T10:17:26.953Z,40.57
2023-03-27T10:20:15.814Z,39.99
2023-03-27T10:22:55.765Z,40.16
2023-03-27T10:25:34.250Z,40.40
2023-03-27T10:28:23.451Z,40.12
2023-03-27T10:31:34.435Z,40.28
2023-03-27T10:34:32.704Z,39.66
2023-03-27T10:37:35.383Z,39.77
2023-03-27T10:40:29.642Z,39.86
2023-03-27T10:43:07.474Z,40.07
2023-03-27T10:46:11.859Z,40.58
2023-03-27T10:48:39.192Z,40.28
2023-03-27T10:51:33.128Z,40.57
2023-03-27T10:54:36.226Z,40.69
2023-03-27T10:57:27.266Z,40.38
2023-03-27T11:00:07.544Z,40.76
2023-03-27T11:02:53.496Z,40.78
2023-03-27T11:05:28.038Z,40.92
2023-03-27T11:08:08.521Z,41.36
2023-03-27T11:10:41.638Z,40.74
2023-03-27T11:13:19.196Z,41.01
2023-03-27T11:16:22.056Z,40.55
2023-03-27T11:19:10.940Z,40.42
2023-03-27T11:22:10.053Z,40.82
2023-03-27T11:25:25.976Z,40.90
2023-03-27T11:28:07.769Z,41.13
2023-03-27T11:31:13.476Z,41.03
2023-03-27T11:33:52.453Z,41.56
2023-03-27T11:36:35.106Z,41.83
2023-03-27T11:39:20.987Z,42.00
2023-03-27T11:42:02.393Z,42.04
2023-03-27T11:44:30.445Z,42.27
2023-03-27T11:47:35.677Z,43.05
2023-03-27T11:50:16.511Z,42.28
2023-03-27T11:53:08.216Z,42.79
2023-03-27T11:56:10.312Z,42.68
2023-03-27T11:59:04.509Z,42.79
2023-03-27T12:01:42.561Z,43.31
2023-03-27T12:04:33.106Z,43.49
2023-03-27T12:07:57.311Z,43.51
2023-03-27T12:10:35.181Z,43.13
2023-03-27T12:13:47.746Z,43.40
2023-03-27T12:17:18.465Z,43.52
2023-03-27T12:19:54.026Z,43.96
2023-03-27T12:22:44.110Z,43.62
2023-03-27T12:25:24.361Z,43.30
2023-03-27T12:28:22.860Z,42.84
2023-03-27T12:31:26.142Z,43.18
2023-03-27T12:34:01.652Z,42.90
2023-03-27T12:36:37.611Z,43.03
2023-03-27T12:39:26.560Z,42.90
2023-03-27T12:41:57.143Z,42.43
2023-03-27T12:45:03.174Z,42.39
2023-03-27T12:47:31.122Z,41.32
2023-03-27T12:50:34.774Z,41.45
2023-03-27T12:53:05.787Z,40.85
2023-03-27T12:55:39.363Z,40.31
2023-03-27T12:58:11.077Z,40.52
2023-03-27T13:00:53.809Z,40.67
2023-03-27T13:03:46.991Z,40.44
2023-03-27T13:06:18.226Z,40.43
2023-03-27T13:09:17.113Z,39.48
2023-03-27T13:12:23.222Z,39.01
2023-03-27T13:14:56.704Z,39.05
2023-03-27T13:17:55.906Z,39.35
2023-03-27T13:20:35.795Z,38.99
2023-03-27T13:23:06.306Z,38.59
2023-03-27T13:25:48.682Z,39.84
2023-03-27T13:28:29.360Z,39.01
2023-03-27T13:31:45.496Z,38.54
2023-03-27T13:34:41.321Z,38.09
2023-03-27T13:37:14.131Z,37.67
2023-03-27T13:40:02.227Z,37.37
2023-03-27T13:42:40.204Z,37.95
2023-03-27T13:45:34.700Z,38.93
2023-03-27T13:48:53.980Z,39.40
2023-03-27T13:51:43.256Z,39.93
2023-03-27T13:54:26.688Z,38.04
2023-03-27T13:57:01.140Z,38.15
2023-03-27T13:59:59.671Z,36.79
2023-03-27T14:03:02.222Z,37.54
2023-03-27T14:05:58.435Z,37.32
2023-03-27T14:09:07.892Z,36.98
2023-03-27T14:12:31.435Z,36.65
2023-03-27T14:15:26.691Z,36.36
2023-03-27T14:18:23.274Z,36.86
2023-03-27T14:20:56.723Z,36.32
2023-03-27T14:23:38.732Z,36.22
2023-03-27T14:26:24.703Z,36.17
2023-03-27T14:28:59.142Z,36.11
2023-03-27T14:31:44.456Z,35.62
2023-03-27T14:34:47.371Z,36.13
2023-03-27T14:38:00.242Z,36.87
2023-03-27T14:40:52.488Z,36.69
2023-03-27T14:43:28.808Z,37.45
2023-03-27T14:46:01.318Z,36.44
2023-03-27T14:48:33.132Z,36.72
2023-03-27T14:51:06.348Z,35.28
2023-03-27T14:53:44.453Z,35.25
2023-03-27T14:56:38.180Z,35.24
2023-03-27T14:59:12.000Z,34.71
2023-03-27T15:01:50.384Z,34.27
2023-03-27T15:04:19.234Z,34.38
2023-03-27T15:06:50.159Z,33.83
2023-03-27T15:09:37.873Z,33.41
2023-03-27T15:12:23.811Z,33.48
2023-03-27T15:14:53.024Z,33.56
2023-03-27T15:17:20.825Z,33.56
2023-03-27T15:19:51.257Z,33.74
2023-03-27T15:22:27.721Z,33.70
2023-03-27T15:25:12.502Z,33.03
2023-03-27T15:27:48.233Z,32.68
2023-03-27T15:30:34.002Z,32.62
2023-03-27T15:33:02.220Z,32.50
2023-03-27T15:35:38.948Z,32.67
2023-03-27T15:38:11.729Z,32.99
2023-03-27T15:40:43.146Z,33.31
2023-03-27T15:43:13.609Z,33.25
2023-03-27T15:46:00.163Z,33.12
2023-03-27T15:48:35.372Z,32.19
2023-03-27T15:51:05.619Z,32.53
2023-03-27T15:53:38.712Z,32.48
2023-03-27T15:56:24.363Z,32.04
2023-03-27T15:59:04.409Z,32.21
2023-03-27T16:01:38.488Z,32.46
2023-03-27T16:04:16.518Z,32.73
2023-03-27T16:06:51.215Z,32.17
2023-03-27T16:09:26.406Z,32.53
2023-03-27T16:11:55.197Z,32.42
2023-03-27T16:14:27.866Z,32.50
2023-03-27T16:17:16.984Z,32.49
2023-03-27T16:19:59.213Z,32.84
2023-03-27T16:22:32.377Z,32.19
2023-03-27T16:25:01.572Z,32.25
2023-03-27T16:27:35.675Z,32.27
2023-03-27T16:30:05.012Z,32.13
2023-03-27T16:32:32.543Z,32.03
2023-03-27T16:34:59.841Z,33.28
2023-03-27T16:37:27.647Z,32.04
2023-03-27T16:39:55.108Z,31.50
2023-03-27T16:42:26.335Z,33.23
2023-03-27T16:44:53.980Z,33.23
2023-03-27T16:47:23.138Z,32.89
2023-03-27T16:50:08.156Z,33.63
2023-03-27T16:52:39.185Z,33.35
2023-03-27T16:55:08.443Z,32.98
2023-03-27T16:57:43.010Z,33.00
2023-03-27T17:00:14.400Z,33.07
2023-03-27T17:02:50.825Z,33.79
2023-03-27T17:05:18.824Z,33.79
2023-03-27T17:07:46.877Z,34.00
2023-03-27T17:10:16.598Z,34.31
2023-03-27T17:12:45.738Z,34.37
2023-03-27T17:15:20.491Z,35.26
2023-03-27T17:17:48.919Z,34.40
2023-03-27T17:20:16.360Z,34.66
2023-03-27T17:22:44.803Z,34.98
2023-03-27T17:25:12.309Z,35.40
2023-03-27T17:27:39.681Z,35.53
2023-03-27T17:30:07.705Z,35.72
2023-03-27T17:32:34.967Z,36.25
2023-03-27T17:35:04.463Z,37.59
2023-03-27T17:37:31.810Z,38.26
2023-03-27T17:39:59.144Z,37.87
2023-03-27T17:42:26.449Z,37.55
2023-03-27T17:44:53.693Z,37.09
2023-03-27T17:47:21.754Z,36.21
2023-03-27T17:49:48.986Z,37.07
2023-03-27T17:52:16.270Z,35.89
2023-03-27T17:54:43.511Z,35.34
2023-03-27T17:57:10.816Z,35.66
2023-03-27T17:59:38.490Z,36.24
2023-03-27T18:02:07.429Z,35.18
2023-03-27T18:04:35.048Z,35.06
2023-03-27T18:07:02.343Z,34.72
2023-03-27T18:09:32.465Z,34.63
2023-03-27T18:11:59.793Z,34.27
2023-03-27T18:14:27.134Z,33.84
2023-03-27T18:16:55.206Z,33.90
2023-03-27T18:19:24.113Z,34.32
2023-03-27T18:21:51.511Z,35.25
2023-03-27T18:24:19.376Z,36.36
2023-03-27T18:26:46.687Z,36.31
2023-03-27T18:29:14.574Z,36.07
2023-03-27T18:31:43.055Z,36.05
2023-03-27T18:34:11.485Z,35.44
2023-03-27T18:36:38.794Z,35.67
2023-03-27T18:39:06.734Z,36.46
2023-03-27T18:41:35.667Z,37.78
2023-03-27T18:44:03.396Z,38.72
2023-03-27T18:46:30.978Z,37.54
2023-03-27T18:48:58.752Z,37.36
2023-03-27T18:51:26.152Z,37.69
2023-03-27T18:53:53.409Z,37.83
2023-03-27T18:56:20.729Z,38.35
2023-03-27T18:58:48.474Z,39.31
2023-03-27T19:01:16.077Z,39.40
2023-03-27T19:03:43.535Z,38.85
2023-03-27T19:06:11.911Z,38.90
2023-03-27T19:08:42.059Z,39.66
2023-03-27T19:11:10.380Z,40.57
2023-03-27T19:13:56.751Z,40.76
2023-03-27T19:16:33.472Z,40.50
2023-03-27T19:19:39.503Z,40.82
2023-03-27T19:22:25.194Z,41.13
2023-03-27T19:24:57.701Z,41.29
2023-03-27T19:27:25.555Z,41.23
2023-03-27T19:29:54.379Z,41.20
2023-03-27T19:32:23.354Z,41.05
2023-03-27T19:34:50.824Z,41.09
2023-03-27T19:37:18.245Z,41.70
2023-03-27T19:39:45.816Z,41.28
2023-03-27T19:42:14.263Z,40.49
2023-03-27T19:44:41.763Z,40.25
2023-03-27T19:47:09.854Z,39.72
2023-03-27T19:49:37.741Z,39.61
2023-03-27T19:52:31.534Z,39.38
2023-03-27T19:54:58.818Z,39.06
2023-03-27T19:57:26.649Z,39.17
2023-03-27T19:59:53.872Z,38.38
2023-03-27T20:02:21.393Z,38.10
2023-03-27T20:04:49.589Z,37.82
2023-03-27T20:07:16.865Z,37.52
2023-03-27T20:09:44.228Z,37.62
2023-03-27T20:12:12.530Z,37.57
2023-03-27T20:14:39.903Z,37.97
2023-03-27T20:17:12.211Z,37.68
2023-03-27T20:19:50.143Z,37.63
2023-03-27T20:22:20.423Z,37.81
2023-03-27T20:24:48.946Z,37.64
2023-03-27T20:27:19.811Z,37.37
2023-03-27T20:29:47.878Z,37.37
2023-03-27T20:32:16.212Z,37.21
2023-03-27T20:34:46.328Z,37.35
2023-03-27T20:37:14.138Z,37.06
2023-03-27T20:39:47.419Z,37.37
2023-03-27T20:42:17.606Z,36.83
2023-03-27T20:44:45.993Z,37.55
2023-03-27T20:47:15.109Z,37.64
2023-03-27T20:50:03.389Z,37.85
2023-03-27T20:52:30.671Z,37.69
2023-03-27T20:54:57.922Z,37.83
2023-03-27T20:57:25.399Z,38.51
2023-03-27T20:59:54.309Z,37.67
2023-03-27T21:02:21.784Z,37.94
2023-03-27T21:04:49.102Z,37.75
2023-03-27T21:07:16.935Z,37.46
2023-03-27T21:09:47.261Z,37.10
2023-03-27T21:12:14.527Z,37.20
2023-03-27T21:14:41.958Z,36.96
2023-03-27T21:17:12.136Z,37.28
2023-03-27T21:19:39.563Z,37.55
2023-03-27T21:22:06.902Z,38.22
2023-03-27T21:24:34.179Z,37.21
2023-03-27T21:27:01.511Z,37.23
2023-03-27T21:29:28.819Z,37.17
2023-03-27T21:31:56.212Z,37.96
2023-03-27T21:34:23.635Z,37.42
2023-03-27T21:36:50.929Z,37.08
2023-03-27T21:39:18.313Z,36.85
2023-03-27T21:41:45.593Z,37.17
2023-03-27T21:44:13.010Z,38.30
2023-03-27T21:46:40.405Z,37.18
2023-03-27T21:49:07.724Z,36.46
2023-03-27T21:51:35.047Z,36.69
2023-03-27T21:54:02.604Z,36.37
2023-03-27T21:56:29.940Z,36.27
2023-03-27T21:58:57.558Z,36.18
2023-03-27T22:01:25.021Z,36.09
2023-03-27T22:03:52.287Z,36.00
2023-03-27T22:06:19.692Z,36.09
2023-03-27T22:08:46.997Z,36.00
2023-03-27T22:11:14.323Z,36.14
2023-03-27T22:13:43.362Z,36.01
2023-03-27T22:16:13.864Z,36.39
2023-03-27T22:18:42.789Z,36.09
2023-03-27T22:21:14.224Z,36.08
2023-03-27T22:23:41.593Z,36.06
2023-03-27T22:26:09.203Z,35.82
2023-03-27T22:28:36.816Z,35.96
2023-03-27T22:31:04.667Z,35.92
2023-03-27T22:33:32.113Z,36.00
2023-03-27T22:35:59.744Z,35.85
2023-03-27T22:38:31.138Z,36.02
2023-03-27T22:40:59.705Z,35.94
2023-03-27T22:43:29.767Z,36.12
2023-03-27T22:45:57.486Z,36.62
2023-03-27T22:48:24.807Z,36.89
2023-03-27T22:50:56.535Z,36.38
2023-03-27T22:53:25.398Z,36.09
2023-03-27T22:55:57.582Z,36.13
2023-03-27T22:58:25.976Z,36.33
2023-03-27T23:00:54.249Z,36.34
2023-03-27T23:03:23.478Z,36.47
2023-03-27T23:05:51.277Z,36.52
2023-03-27T23:08:20.345Z,36.73
2023-03-27T23:10:55.426Z,36.89
2023-03-27T23:13:23.442Z,36.89
2023-03-27T23:15:54.258Z,36.96
2023-03-27T23:18:24.614Z,37.12
2023-03-27T23:21:00.386Z,37.13
2023-03-27T23:23:29.550Z,37.08
2023-03-27T23:26:00.093Z,37.33
2023-03-27T23:28:31.754Z,37.31
2023-03-27T23:31:04.906Z,37.42
2023-03-27T23:33:36.145Z,37.40
2023-03-27T23:36:07.632Z,37.42
2023-03-27T23:38:35.435Z,37.75
2023-03-27T23:41:03.554Z,37.62
2023-03-27T23:43:31.768Z,37.76
2023-03-27T23:45:59.784Z,37.74
2023-03-27T23:48:30.766Z,37.58
2023-03-27T23:50:58.586Z,37.76
2023-03-27T23:53:28.194Z,37.75
2023-03-27T23:55:57.685Z,37.55
2023-03-27T23:58:28.793Z,37.68
